Terminal Aerodrome Forecast
Issued by NWS

Home | Current Version | Previous Version | Text Only | Print | Product List | Glossary On
Versions: 1 2 3 4 5 6 7 8 9 10 11 12 13 14 15 16 17 18 19
000
FTUS43 KMQT 181100
TAFSAW
TAF
KSAW 181131Z 1812/1912 02006KT P6SM BKN020
     FM181400 02007KT P6SM SCT025
      TEMPO 1814/1816 BKN025
     FM190000 01003KT P6SM FEW140
     FM190700 00000KT 6SM BR FEW003
      AMD LTD TO CLD VIS AND WIND 1903/1911=

USA.gov is the U.S. government's official web portal to all federal, state and local government web resources and services.